createdAt,value
2023-01-21T00:01:16.991Z,0.40
2023-01-21T00:03:44.823Z,0.40
2023-01-21T00:06:15.037Z,0.32
2023-01-21T00:08:41.828Z,0.30
2023-01-21T00:11:11.840Z,0.30
2023-01-21T00:13:38.480Z,0.32
2023-01-21T00:16:05.966Z,0.32
2023-01-21T00:18:34.088Z,0.30
2023-01-21T00:21:01.383Z,0.40
2023-01-21T00:23:28.021Z,0.38
2023-01-21T00:26:00.074Z,0.30
2023-01-21T00:28:32.273Z,0.30
2023-01-21T00:31:05.484Z,0.30
2023-01-21T00:33:33.796Z,0.30
2023-01-21T00:36:07.754Z,0.30
2023-01-21T00:38:35.783Z,0.30
2023-01-21T00:41:08.884Z,0.28
2023-01-21T00:43:35.843Z,0.20
2023-01-21T00:46:02.698Z,0.22
2023-01-21T00:48:29.419Z,0.30
2023-01-21T00:51:00.569Z,0.40
2023-01-21T00:53:30.711Z,0.40
2023-01-21T00:56:06.150Z,0.40
2023-01-21T00:58:33.556Z,0.40
2023-01-21T01:01:15.634Z,0.34
2023-01-21T01:03:43.328Z,0.30
2023-01-21T01:06:19.267Z,0.30
2023-01-21T01:08:48.356Z,0.30
2023-01-21T01:11:17.020Z,0.30
2023-01-21T01:13:44.305Z,0.20
2023-01-21T01:16:14.985Z,0.20
2023-01-21T01:18:41.884Z,0.20
2023-01-21T01:21:14.116Z,0.20
2023-01-21T01:23:40.841Z,0.30
2023-01-21T01:26:12.159Z,0.30
2023-01-21T01:28:39.393Z,0.20
2023-01-21T01:31:09.044Z,0.20
2023-01-21T01:33:35.764Z,0.20
2023-01-21T01:36:10.536Z,0.20
2023-01-21T01:38:37.171Z,0.20
2023-01-21T01:41:04.955Z,0.20
2023-01-21T01:44:01.157Z,0.20
2023-01-21T01:46:37.588Z,0.12
2023-01-21T01:49:17.641Z,0.16
2023-01-21T01:51:56.655Z,0.12
2023-01-21T01:54:29.711Z,0.18
2023-01-21T01:57:00.788Z,0.12
2023-01-21T01:59:29.044Z,0.20
2023-01-21T02:01:59.857Z,0.20
2023-01-21T02:04:33.717Z,0.20
2023-01-21T02:07:00.445Z,0.12
2023-01-21T02:09:29.968Z,0.20
2023-01-21T02:12:00.037Z,0.12
2023-01-21T02:14:28.594Z,0.10
2023-01-21T02:17:06.402Z,0.10
2023-01-21T02:19:57.917Z,0.06
2023-01-21T02:22:45.340Z,0.10
2023-01-21T02:25:48.888Z,0.00
2023-01-21T02:28:51.720Z,0.00
2023-01-21T02:31:51.237Z,0.00
2023-01-21T02:34:46.250Z,-0.02
2023-01-21T02:37:33.322Z,-0.08
2023-01-21T02:40:28.956Z,0.00
2023-01-21T02:43:21.944Z,-0.04
2023-01-21T02:45:59.871Z,-0.10
2023-01-21T02:48:38.917Z,-0.10
2023-01-21T02:51:06.010Z,-0.10
2023-01-21T02:53:35.862Z,-0.10
2023-01-21T02:56:13.453Z,-0.10
2023-01-21T02:58:45.773Z,-0.10
2023-01-21T03:01:55.433Z,-0.10
2023-01-21T03:04:54.070Z,-0.10
2023-01-21T03:07:31.846Z,0.00
2023-01-21T03:10:07.273Z,0.00
2023-01-21T03:13:07.694Z,0.00
2023-01-21T03:16:07.007Z,0.00
2023-01-21T03:18:43.872Z,0.00
2023-01-21T03:21:24.044Z,0.00
2023-01-21T03:23:53.027Z,0.00
2023-01-21T03:26:28.613Z,0.00
2023-01-21T03:29:00.101Z,-0.10
2023-01-21T03:31:34.109Z,-0.10
2023-01-21T03:34:06.234Z,-0.10
2023-01-21T03:36:42.885Z,-0.10
2023-01-21T03:39:45.946Z,-0.10
2023-01-21T03:42:13.632Z,-0.10
2023-01-21T03:44:42.038Z,-0.10
2023-01-21T03:47:39.378Z,-0.10
2023-01-21T03:50:27.461Z,-0.10
2023-01-21T03:52:54.091Z,-0.10
2023-01-21T03:55:20.756Z,-0.10
2023-01-21T03:57:47.536Z,-0.10
2023-01-21T04:00:15.920Z,-0.10
2023-01-21T04:02:42.887Z,-0.20
2023-01-21T04:05:09.647Z,-0.10
2023-01-21T04:07:36.362Z,-0.10
2023-01-21T04:10:03.591Z,-0.10
2023-01-21T04:12:30.261Z,-0.20
2023-01-21T04:14:58.220Z,-0.20
2023-01-21T04:17:24.960Z,-0.20
2023-01-21T04:19:51.662Z,-0.20
2023-01-21T04:22:18.321Z,-0.20
2023-01-21T04:24:44.911Z,-0.20
2023-01-21T04:27:11.431Z,-0.20
2023-01-21T04:29:38.068Z,-0.20
2023-01-21T04:32:05.056Z,-0.20
2023-01-21T04:34:31.564Z,-0.20
2023-01-21T04:36:58.124Z,-0.20
2023-01-21T04:39:24.737Z,-0.20
2023-01-21T04:41:51.373Z,-0.20
2023-01-21T04:44:17.959Z,-0.20
2023-01-21T04:46:44.539Z,-0.30
2023-01-21T04:49:11.137Z,-0.28
2023-01-21T04:51:37.769Z,-0.30
2023-01-21T04:54:04.459Z,-0.30
2023-01-21T04:56:31.062Z,-0.30
2023-01-21T04:58:57.744Z,-0.28
2023-01-21T05:01:24.380Z,-0.28
2023-01-21T05:03:52.351Z,-0.22
2023-01-21T05:06:18.958Z,-0.30
2023-01-21T05:08:45.500Z,-0.30
2023-01-21T05:11:16.665Z,-0.30
2023-01-21T05:13:43.496Z,-0.30
2023-01-21T05:16:10.965Z,-0.30
2023-01-21T05:18:38.655Z,-0.30
2023-01-21T05:21:06.219Z,-0.30
2023-01-21T05:23:33.472Z,-0.30
2023-01-21T05:26:00.029Z,-0.30
2023-01-21T05:28:26.567Z,-0.30
2023-01-21T05:30:53.244Z,-0.40
2023-01-21T05:33:26.216Z,-0.40
2023-01-21T05:35:52.981Z,-0.40
2023-01-21T05:38:19.672Z,-0.40
2023-01-21T05:40:46.325Z,-0.40
2023-01-21T05:43:13.059Z,-0.44
2023-01-21T05:45:39.673Z,-0.50
2023-01-21T05:48:06.330Z,-0.50
2023-01-21T05:50:32.940Z,-0.60
2023-01-21T05:52:59.610Z,-0.60
2023-01-21T05:55:26.213Z,-0.70
2023-01-21T05:57:52.825Z,-0.70
2023-01-21T06:00:20.305Z,-0.70
2023-01-21T06:02:46.984Z,-0.70
2023-01-21T06:05:13.706Z,-0.70
2023-01-21T06:07:40.242Z,-0.70
2023-01-21T06:10:08.018Z,-0.70
2023-01-21T06:12:34.570Z,-0.70
2023-01-21T06:15:01.142Z,-0.70
2023-01-21T06:17:27.859Z,-0.70
2023-01-21T06:19:54.592Z,-0.70
2023-01-21T06:22:21.235Z,-0.70
2023-01-21T06:24:47.814Z,-0.70
2023-01-21T06:27:14.558Z,-0.70
2023-01-21T06:29:41.071Z,-0.70
2023-01-21T06:32:07.860Z,-0.70
2023-01-21T06:34:34.572Z,-0.70
2023-01-21T06:37:01.412Z,-0.70
2023-01-21T06:39:28.010Z,-0.76
2023-01-21T06:41:55.393Z,-0.72
2023-01-21T06:44:22.865Z,-0.78
2023-01-21T06:47:00.112Z,-0.80
2023-01-21T06:49:27.754Z,-0.80
2023-01-21T06:51:54.391Z,-0.80
2023-01-21T06:54:21.038Z,-0.82
2023-01-21T06:56:47.690Z,-0.90
2023-01-21T06:59:14.243Z,-0.90
2023-01-21T07:01:40.907Z,-0.90
2023-01-21T07:04:07.612Z,-0.90
2023-01-21T07:06:34.271Z,-0.90
2023-01-21T07:09:01.000Z,-1.00
2023-01-21T07:11:27.616Z,-1.00
2023-01-21T07:13:54.251Z,-1.00
2023-01-21T07:16:20.991Z,-0.92
2023-01-21T07:18:47.612Z,-0.90
2023-01-21T07:21:14.301Z,-0.84
2023-01-21T07:23:41.043Z,-0.90
2023-01-21T07:26:07.775Z,-0.90
2023-01-21T07:28:34.469Z,-0.90
2023-01-21T07:31:03.667Z,-0.90
2023-01-21T07:33:30.754Z,-0.84
2023-01-21T07:35:57.403Z,-0.84
2023-01-21T07:38:23.992Z,-0.80
2023-01-21T07:40:51.395Z,-0.80
2023-01-21T07:43:18.542Z,-0.80
2023-01-21T07:45:45.583Z,-0.80
2023-01-21T07:48:12.217Z,-0.70
2023-01-21T07:50:38.908Z,-0.70
2023-01-21T07:53:05.497Z,-0.80
2023-01-21T07:55:32.272Z,-0.80
2023-01-21T07:57:59.737Z,-0.80
2023-01-21T08:00:27.249Z,-0.80
2023-01-21T08:02:55.089Z,-0.86
2023-01-21T08:05:23.685Z,-0.90
2023-01-21T08:07:50.873Z,-0.90
2023-01-21T08:10:19.498Z,-0.90
2023-01-21T08:12:46.209Z,-0.80
2023-01-21T08:15:12.900Z,-0.80
2023-01-21T08:17:42.396Z,-0.80
2023-01-21T08:20:11.499Z,-0.70
2023-01-21T08:22:38.822Z,-0.70
2023-01-21T08:25:07.261Z,-0.70
2023-01-21T08:27:34.137Z,-0.70
2023-01-21T08:30:00.840Z,-0.70
2023-01-21T08:32:31.679Z,-0.70
2023-01-21T08:34:58.275Z,-0.70
2023-01-21T08:37:25.117Z,-0.80
2023-01-21T08:39:51.704Z,-0.70
2023-01-21T08:42:18.339Z,-0.70
2023-01-21T08:44:46.322Z,-0.70
2023-01-21T08:47:12.920Z,-0.70
2023-01-21T08:49:39.541Z,-0.70
2023-01-21T08:52:06.279Z,-0.60
2023-01-21T08:54:32.864Z,-0.60
2023-01-21T08:56:59.413Z,-0.60
2023-01-21T08:59:30.071Z,-0.60
2023-01-21T09:01:57.109Z,-0.60
2023-01-21T09:04:23.798Z,-0.60
2023-01-21T09:06:50.375Z,-0.60
2023-01-21T09:09:17.062Z,-0.56
2023-01-21T09:11:43.732Z,-0.50
2023-01-21T09:14:10.345Z,-0.50
2023-01-21T09:16:37.226Z,-0.50
2023-01-21T09:19:04.234Z,-0.40
2023-01-21T09:21:34.575Z,-0.40
2023-01-21T09:24:02.070Z,-0.40
2023-01-21T09:26:28.940Z,-0.40
2023-01-21T09:28:59.106Z,-0.30
2023-01-21T09:31:28.447Z,-0.20
2023-01-21T09:33:59.390Z,-0.10
2023-01-21T09:36:29.986Z,-0.10
2023-01-21T09:38:57.582Z,-0.10
2023-01-21T09:41:53.622Z,0.00
2023-01-21T09:44:28.250Z,0.00
2023-01-21T09:47:03.590Z,0.10
2023-01-21T09:49:43.317Z,0.00
2023-01-21T09:52:31.872Z,0.08
2023-01-21T09:54:59.030Z,0.10
2023-01-21T09:58:22.281Z,0.20
2023-01-21T10:01:28.242Z,0.20
2023-01-21T10:04:33.186Z,0.30
2023-01-21T10:07:10.060Z,0.30
2023-01-21T10:09:48.945Z,0.30
2023-01-21T10:12:51.065Z,0.30
2023-01-21T10:15:38.095Z,0.26
2023-01-21T10:18:19.883Z,0.28
2023-01-21T10:20:55.833Z,0.30
2023-01-21T10:23:28.839Z,0.30
2023-01-21T10:25:58.250Z,0.30
2023-01-21T10:28:30.593Z,0.20
2023-01-21T10:31:14.093Z,0.20
2023-01-21T10:33:40.755Z,0.20
2023-01-21T10:36:38.405Z,0.30
2023-01-21T10:39:29.316Z,0.30
2023-01-21T10:42:08.234Z,0.26
2023-01-21T10:44:59.935Z,0.30
2023-01-21T10:48:08.623Z,0.30
2023-01-21T10:50:49.581Z,0.40
2023-01-21T10:53:43.671Z,0.40
2023-01-21T10:56:34.054Z,0.40
2023-01-21T10:59:10.378Z,0.40
2023-01-21T11:01:43.017Z,0.34
2023-01-21T11:04:25.915Z,0.40
2023-01-21T11:07:03.862Z,0.40
2023-01-21T11:09:35.153Z,0.40
2023-01-21T11:12:02.923Z,0.38
2023-01-21T11:14:29.841Z,0.30
2023-01-21T11:16:57.660Z,0.30
2023-01-21T11:19:30.660Z,0.40
2023-01-21T11:22:27.487Z,0.54
2023-01-21T11:24:54.097Z,0.60
2023-01-21T11:27:32.729Z,0.60
2023-01-21T11:29:59.746Z,0.70
2023-01-21T11:32:29.406Z,0.80
2023-01-21T11:35:13.200Z,0.80
2023-01-21T11:37:39.785Z,0.80
2023-01-21T11:40:13.389Z,0.90
2023-01-21T11:42:53.576Z,0.90
2023-01-21T11:45:32.625Z,0.90
2023-01-21T11:48:00.815Z,0.90
2023-01-21T11:50:38.192Z,0.90
2023-01-21T11:53:07.975Z,1.10
2023-01-21T11:55:57.149Z,1.10
2023-01-21T11:58:36.031Z,1.00
2023-01-21T12:01:07.814Z,1.00
2023-01-21T12:03:49.482Z,1.02
2023-01-21T12:06:36.995Z,1.10
2023-01-21T12:09:07.907Z,1.10
2023-01-21T12:11:34.826Z,1.20
2023-01-21T12:14:26.132Z,1.20
2023-01-21T12:17:35.029Z,1.20
2023-01-21T12:20:48.431Z,1.20
2023-01-21T12:23:36.405Z,1.10
2023-01-21T12:26:20.948Z,1.26
2023-01-21T12:29:07.813Z,1.30
2023-01-21T12:31:44.709Z,1.40
2023-01-21T12:34:49.548Z,1.30
2023-01-21T12:37:25.101Z,1.20
2023-01-21T12:39:54.418Z,1.20
2023-01-21T12:42:22.529Z,1.30
2023-01-21T12:44:55.178Z,1.30
2023-01-21T12:47:42.703Z,1.30
2023-01-21T12:50:44.904Z,1.20
2023-01-21T12:53:32.801Z,1.10
2023-01-21T12:56:09.401Z,1.20
2023-01-21T12:58:50.415Z,1.38
2023-01-21T13:01:30.768Z,1.40
2023-01-21T13:04:25.357Z,1.50
2023-01-21T13:07:46.498Z,1.40
2023-01-21T13:10:40.961Z,1.30
2023-01-21T13:13:34.246Z,1.40
2023-01-21T13:16:07.175Z,1.40
2023-01-21T13:18:40.938Z,1.42
2023-01-21T13:21:48.459Z,1.50
2023-01-21T13:24:19.310Z,1.40
2023-01-21T13:27:15.821Z,1.40
2023-01-21T13:29:54.728Z,1.40
2023-01-21T13:33:17.696Z,1.30
2023-01-21T13:36:04.933Z,1.20
2023-01-21T13:39:19.326Z,1.30
2023-01-21T13:42:20.388Z,1.30
2023-01-21T13:45:17.506Z,1.22
2023-01-21T13:48:24.429Z,1.16
2023-01-21T13:51:31.474Z,1.20
2023-01-21T13:54:11.388Z,1.20
2023-01-21T13:56:45.078Z,1.20
2023-01-21T13:59:21.021Z,1.20
2023-01-21T14:02:23.503Z,1.10
2023-01-21T14:05:27.993Z,1.10
2023-01-21T14:08:08.907Z,1.02
2023-01-21T14:11:04.242Z,1.00
2023-01-21T14:13:59.032Z,0.90
2023-01-21T14:16:50.345Z,0.90
2023-01-21T14:19:31.003Z,0.94
2023-01-21T14:22:26.469Z,1.00
2023-01-21T14:25:31.457Z,0.90
2023-01-21T14:28:16.392Z,0.90
2023-01-21T14:30:46.410Z,0.90
2023-01-21T14:33:49.045Z,0.90
2023-01-21T14:36:26.655Z,0.90
2023-01-21T14:39:22.001Z,0.90
2023-01-21T14:42:04.557Z,0.84
2023-01-21T14:45:03.016Z,0.80
2023-01-21T14:47:29.570Z,0.90
2023-01-21T14:49:59.170Z,0.80
2023-01-21T14:52:44.996Z,0.80
2023-01-21T14:55:32.903Z,0.80
2023-01-21T14:58:01.763Z,0.80
2023-01-21T15:00:36.889Z,0.80
2023-01-21T15:03:09.683Z,0.80
2023-01-21T15:05:37.221Z,0.70
2023-01-21T15:08:35.875Z,0.70
2023-01-21T15:11:08.103Z,0.80
2023-01-21T15:13:35.275Z,0.80
2023-01-21T15:16:36.133Z,0.80
2023-01-21T15:19:09.101Z,0.80
2023-01-21T15:21:45.005Z,0.78
2023-01-21T15:24:30.653Z,0.78
2023-01-21T15:27:15.688Z,0.70
2023-01-21T15:29:54.396Z,0.70
2023-01-21T15:32:35.907Z,0.70
2023-01-21T15:35:31.888Z,0.66
2023-01-21T15:38:13.954Z,0.76
2023-01-21T15:41:07.472Z,0.70
2023-01-21T15:43:55.077Z,0.70
2023-01-21T15:46:35.151Z,0.70
2023-01-21T15:49:36.226Z,0.76
2023-01-21T15:52:52.164Z,0.70
2023-01-21T15:55:39.231Z,0.70
2023-01-21T15:58:32.333Z,0.60
2023-01-21T16:01:32.066Z,0.60
2023-01-21T16:04:30.063Z,0.60
2023-01-21T16:07:32.866Z,0.60
2023-01-21T16:10:20.507Z,0.60
2023-01-21T16:13:24.619Z,0.58
2023-01-21T16:16:04.514Z,0.50
2023-01-21T16:18:59.188Z,0.50
2023-01-21T16:21:40.121Z,0.50
2023-01-21T16:24:39.241Z,0.50
2023-01-21T16:27:31.024Z,0.50
2023-01-21T16:30:12.270Z,0.50
2023-01-21T16:32:39.332Z,0.50
2023-01-21T16:35:06.314Z,0.50
2023-01-21T16:37:33.336Z,0.50
2023-01-21T16:40:09.142Z,0.48
2023-01-21T16:42:41.312Z,0.44
2023-01-21T16:45:26.217Z,0.40
2023-01-21T16:47:59.391Z,0.40
2023-01-21T16:50:30.381Z,0.40
2023-01-21T16:53:00.143Z,0.40
2023-01-21T16:55:30.757Z,0.40
2023-01-21T16:57:59.424Z,0.50
2023-01-21T17:00:30.705Z,0.50
2023-01-21T17:02:59.284Z,0.50
2023-01-21T17:05:31.008Z,0.50
2023-01-21T17:08:05.076Z,0.50
2023-01-21T17:10:56.068Z,0.50
2023-01-21T17:13:23.053Z,0.40
2023-01-21T17:15:57.574Z,0.40
2023-01-21T17:18:40.615Z,0.40
2023-01-21T17:21:15.775Z,0.40
2023-01-21T17:23:53.683Z,0.40
2023-01-21T17:26:39.760Z,0.30
2023-01-21T17:29:18.613Z,0.30
2023-01-21T17:32:04.584Z,0.30
2023-01-21T17:34:37.438Z,0.30
2023-01-21T17:37:43.872Z,0.30
2023-01-21T17:40:49.553Z,0.28
2023-01-21T17:43:21.885Z,0.20
2023-01-21T17:45:51.064Z,0.20
2023-01-21T17:48:29.808Z,0.10
2023-01-21T17:51:06.367Z,0.10
2023-01-21T17:53:41.393Z,0.10
2023-01-21T17:56:08.969Z,0.12
2023-01-21T17:58:41.638Z,0.20
2023-01-21T18:01:09.850Z,0.20
2023-01-21T18:03:36.969Z,0.10
2023-01-21T18:06:06.122Z,0.00
2023-01-21T18:08:32.793Z,0.00
2023-01-21T18:10:59.431Z,0.04
2023-01-21T18:13:26.280Z,0.10
2023-01-21T18:15:54.498Z,0.00
2023-01-21T18:18:26.103Z,0.00
2023-01-21T18:20:53.109Z,-0.08
2023-01-21T18:23:19.913Z,-0.10
2023-01-21T18:25:49.660Z,-0.10
2023-01-21T18:28:26.740Z,-0.10
2023-01-21T18:30:56.540Z,-0.10
2023-01-21T18:33:24.535Z,-0.10
2023-01-21T18:35:52.776Z,-0.10
2023-01-21T18:38:27.022Z,-0.10
2023-01-21T18:40:56.403Z,-0.10
2023-01-21T18:43:26.188Z,-0.10
2023-01-21T18:45:54.670Z,-0.04
2023-01-21T18:48:28.576Z,0.00
2023-01-21T18:50:55.884Z,0.00
2023-01-21T18:53:22.568Z,0.00
2023-01-21T18:55:53.953Z,0.00
2023-01-21T18:58:21.095Z,0.00
2023-01-21T19:00:48.974Z,-0.02
2023-01-21T19:03:16.276Z,-0.04
2023-01-21T19:05:47.576Z,0.00
2023-01-21T19:08:21.968Z,0.00
2023-01-21T19:10:48.697Z,-0.02
2023-01-21T19:13:15.430Z,-0.10
2023-01-21T19:15:42.088Z,-0.10
2023-01-21T19:18:16.297Z,-0.10
2023-01-21T19:20:43.794Z,-0.10
2023-01-21T19:23:17.746Z,-0.20
2023-01-21T19:25:54.528Z,-0.20
2023-01-21T19:28:23.584Z,-0.20
2023-01-21T19:30:55.131Z,-0.10
2023-01-21T19:33:23.407Z,-0.10
2023-01-21T19:35:58.602Z,-0.10
2023-01-21T19:38:26.338Z,-0.10
2023-01-21T19:40:53.182Z,-0.10
2023-01-21T19:43:21.755Z,-0.10
2023-01-21T19:45:51.495Z,-0.10
2023-01-21T19:48:21.408Z,-0.10
2023-01-21T19:50:48.587Z,-0.10
2023-01-21T19:53:18.561Z,-0.10
2023-01-21T19:55:46.625Z,-0.20
2023-01-21T19:58:32.673Z,-0.20
2023-01-21T20:00:59.331Z,-0.20
2023-01-21T20:03:28.403Z,-0.22
2023-01-21T20:06:04.333Z,-0.30
2023-01-21T20:08:31.899Z,-0.20
2023-01-21T20:10:58.568Z,-0.20
2023-01-21T20:13:26.216Z,-0.20
2023-01-21T20:15:53.176Z,-0.20
2023-01-21T20:18:26.884Z,-0.20
2023-01-21T20:20:54.260Z,-0.12
2023-01-21T20:23:22.887Z,-0.20
2023-01-21T20:25:53.928Z,-0.20
2023-01-21T20:28:24.081Z,-0.20
2023-01-21T20:30:53.512Z,-0.10
2023-01-21T20:33:23.864Z,-0.18
2023-01-21T20:35:56.753Z,-0.20
2023-01-21T20:38:30.503Z,-0.20
2023-01-21T20:40:58.467Z,-0.20
2023-01-21T20:43:25.256Z,-0.20
2023-01-21T20:45:52.620Z,-0.20
2023-01-21T20:48:25.589Z,-0.20
2023-01-21T20:50:52.551Z,-0.20
2023-01-21T20:53:19.390Z,-0.20
2023-01-21T20:55:48.922Z,-0.20
2023-01-21T20:58:17.923Z,-0.16
2023-01-21T21:00:47.310Z,-0.10
2023-01-21T21:03:18.015Z,-0.10
2023-01-21T21:05:49.391Z,-0.10
2023-01-21T21:08:20.428Z,-0.10
2023-01-21T21:10:47.843Z,-0.10
2023-01-21T21:13:14.844Z,-0.10
2023-01-21T21:15:45.706Z,-0.10
2023-01-21T21:18:14.530Z,-0.10
2023-01-21T21:20:42.139Z,-0.10
2023-01-21T21:23:14.373Z,-0.10
2023-01-21T21:25:44.778Z,-0.16
2023-01-21T21:28:14.750Z,-0.10
2023-01-21T21:30:42.040Z,-0.10
2023-01-21T21:33:17.533Z,-0.10
2023-01-21T21:35:44.867Z,-0.10
2023-01-21T21:38:18.228Z,-0.10
2023-01-21T21:40:46.979Z,-0.10
2023-01-21T21:43:32.734Z,-0.10
2023-01-21T21:46:27.773Z,-0.10
2023-01-21T21:48:54.459Z,-0.10
2023-01-21T21:51:24.401Z,-0.08
2023-01-21T21:53:51.676Z,-0.06
2023-01-21T21:56:24.192Z,0.00
2023-01-21T21:58:51.406Z,0.00
2023-01-21T22:01:25.083Z,0.00
2023-01-21T22:03:52.834Z,0.00
2023-01-21T22:06:22.357Z,0.10
2023-01-21T22:08:49.239Z,0.10
2023-01-21T22:11:19.505Z,0.10
2023-01-21T22:13:50.208Z,0.20
2023-01-21T22:16:21.536Z,0.30
2023-01-21T22:18:48.183Z,0.20
2023-01-21T22:21:19.059Z,0.10
2023-01-21T22:23:47.008Z,0.00
2023-01-21T22:26:17.726Z,0.00
2023-01-21T22:28:44.767Z,-0.10
2023-01-21T22:31:22.143Z,-0.10
2023-01-21T22:33:49.414Z,-0.12
2023-01-21T22:36:19.921Z,-0.12
2023-01-21T22:38:47.766Z,-0.10
2023-01-21T22:41:18.039Z,-0.10
2023-01-21T22:43:48.599Z,-0.02
2023-01-21T22:46:25.908Z,-0.08
2023-01-21T22:48:55.824Z,-0.08
2023-01-21T22:51:23.483Z,-0.10
2023-01-21T22:53:51.500Z,-0.08
2023-01-21T22:56:31.501Z,0.00
2023-01-21T22:59:06.794Z,0.00
2023-01-21T23:01:33.555Z,0.00
2023-01-21T23:04:00.795Z,0.00
2023-01-21T23:06:28.699Z,-0.10
2023-01-21T23:08:55.735Z,-0.14
2023-01-21T23:11:22.343Z,-0.20
2023-01-21T23:13:55.237Z,-0.20
2023-01-21T23:16:22.203Z,-0.16
2023-01-21T23:18:49.428Z,-0.20
2023-01-21T23:21:22.250Z,-0.20
2023-01-21T23:23:50.210Z,-0.12
2023-01-21T23:26:19.270Z,-0.10
2023-01-21T23:28:46.502Z,-0.10
2023-01-21T23:31:17.073Z,-0.10
2023-01-21T23:33:44.710Z,-0.08
2023-01-21T23:36:13.667Z,0.00
2023-01-21T23:38:41.904Z,0.00
2023-01-21T23:41:12.443Z,-0.10
2023-01-21T23:43:39.945Z,-0.10
2023-01-21T23:46:11.454Z,-0.20
2023-01-21T23:48:39.101Z,-0.18
2023-01-21T23:51:11.156Z,-0.10
2023-01-21T23:53:37.779Z,-0.10
2023-01-21T23:56:07.120Z,-0.10
2023-01-21T23:58:33.739Z,-0.10
